< < Back
Terminal Aerodrome Forecast


Current Version              Previous Versions:   1  2  3  4  5  6  7  8  9  

Terminal Aerodrome Forecast

202
FTUS42 KMLB 241725
TAFDAB
TAF
KDAB 241725Z 2418/2518 08011G18KT P6SM FEW035 SCT070
     FM250000 08006KT P6SM FEW060 SCT250
     FM251400 07010KT P6SM FEW025=

Latest METAR

357
SAUS80 KWBC 250300 RRA
MTRDAB
METAR KDAB 250253Z 10003KT 10SM CLR 24/16 A3018 RMK AO2 SLP218 T02440156
53017


USA.gov is the U.S. government's official web portal to all federal, state and local government web resources and services.